sensor_id;sensor_type;location;lat;lon;timestamp;temperature;humidity
64685;DHT22;51109;47.414;18.954;2023-05-23T00:01:44;16.40;99.90
64685;DHT22;51109;47.414;18.954;2023-05-23T00:04:11;16.40;99.90
64685;DHT22;51109;47.414;18.954;2023-05-23T00:06:43;16.40;99.90
64685;DHT22;51109;47.414;18.954;2023-05-23T00:09:15;16.40;99.90
64685;DHT22;51109;47.414;18.954;2023-05-23T00:11:41;16.20;99.90
64685;DHT22;51109;47.414;18.954;2023-05-23T00:14:11;16.00;99.90
64685;DHT22;51109;47.414;18.954;2023-05-23T00:16:39;15.90;99.90
64685;DHT22;51109;47.414;18.954;2023-05-23T00:19:06;15.80;99.90
64685;DHT22;51109;47.414;18.954;2023-05-23T00:21:32;15.90;99.90
64685;DHT22;51109;47.414;18.954;2023-05-23T00:23:58;16.00;99.90
64685;DHT22;51109;47.414;18.954;2023-05-23T00:26:24;16.10;99.90
64685;DHT22;51109;47.414;18.954;2023-05-23T00:28:54;16.20;99.90
64685;DHT22;51109;47.414;18.954;2023-05-23T00:31:21;16.30;99.90
64685;DHT22;51109;47.414;18.954;2023-05-23T00:33:47;16.20;99.90
64685;DHT22;51109;47.414;18.954;2023-05-23T00:36:13;16.20;99.90
64685;DHT22;51109;47.414;18.954;2023-05-23T00:38:39;16.10;99.90
64685;DHT22;51109;47.414;18.954;2023-05-23T00:41:05;16.10;99.90
64685;DHT22;51109;47.414;18.954;2023-05-23T00:43:31;16.10;99.90
64685;DHT22;51109;47.414;18.954;2023-05-23T00:45:58;16.10;99.90
64685;DHT22;51109;47.414;18.954;2023-05-23T00:48:25;16.00;99.90
64685;DHT22;51109;47.414;18.954;2023-05-23T00:50:51;15.90;99.90
64685;DHT22;51109;47.414;18.954;2023-05-23T00:53:18;15.90;99.90
64685;DHT22;51109;47.414;18.954;2023-05-23T00:55:44;15.80;99.90
64685;DHT22;51109;47.414;18.954;2023-05-23T00:58:10;15.80;99.90
64685;DHT22;51109;47.414;18.954;2023-05-23T01:00:38;15.70;99.90
64685;DHT22;51109;47.414;18.954;2023-05-23T01:03:04;15.40;99.90
64685;DHT22;51109;47.414;18.954;2023-05-23T01:05:30;15.40;99.90
64685;DHT22;51109;47.414;18.954;2023-05-23T01:07:56;15.50;99.90
64685;DHT22;51109;47.414;18.954;2023-05-23T01:10:26;15.70;99.90
64685;DHT22;51109;47.414;18.954;2023-05-23T01:13:09;15.50;99.90
64685;DHT22;51109;47.414;18.954;2023-05-23T01:18:35;15.10;99.90
64685;DHT22;51109;47.414;18.954;2023-05-23T01:21:07;15.10;99.90
64685;DHT22;51109;47.414;18.954;2023-05-23T01:29:14;15.10;99.90
64685;DHT22;51109;47.414;18.954;2023-05-23T01:31:45;15.10;99.90
64685;DHT22;51109;47.414;18.954;2023-05-23T01:34:12;15.20;99.90
64685;DHT22;51109;47.414;18.954;2023-05-23T01:36:42;15.40;99.90
64685;DHT22;51109;47.414;18.954;2023-05-23T01:39:08;15.40;99.90
64685;DHT22;51109;47.414;18.954;2023-05-23T01:41:35;15.40;99.90
64685;DHT22;51109;47.414;18.954;2023-05-23T01:44:02;15.50;99.90
64685;DHT22;51109;47.414;18.954;2023-05-23T01:46:28;15.50;99.90
64685;DHT22;51109;47.414;18.954;2023-05-23T01:48:56;15.50;99.90
64685;DHT22;51109;47.414;18.954;2023-05-23T01:51:23;15.50;99.90
64685;DHT22;51109;47.414;18.954;2023-05-23T01:53:51;15.50;99.90
64685;DHT22;51109;47.414;18.954;2023-05-23T01:56:19;15.50;99.90
64685;DHT22;51109;47.414;18.954;2023-05-23T01:58:46;15.50;99.90
64685;DHT22;51109;47.414;18.954;2023-05-23T02:01:12;15.50;99.90
64685;DHT22;51109;47.414;18.954;2023-05-23T02:03:38;15.50;99.90
64685;DHT22;51109;47.414;18.954;2023-05-23T02:06:04;15.50;99.90
64685;DHT22;51109;47.414;18.954;2023-05-23T02:08:30;15.60;99.90
64685;DHT22;51109;47.414;18.954;2023-05-23T02:10:56;15.20;99.90
64685;DHT22;51109;47.414;18.954;2023-05-23T02:13:22;15.00;99.90
64685;DHT22;51109;47.414;18.954;2023-05-23T02:15:48;15.00;99.90
64685;DHT22;51109;47.414;18.954;2023-05-23T02:18:13;15.00;99.90
64685;DHT22;51109;47.414;18.954;2023-05-23T02:20:39;15.00;99.90
64685;DHT22;51109;47.414;18.954;2023-05-23T02:23:05;15.10;99.90
64685;DHT22;51109;47.414;18.954;2023-05-23T02:25:31;15.10;99.90
64685;DHT22;51109;47.414;18.954;2023-05-23T02:27:57;14.90;99.90
64685;DHT22;51109;47.414;18.954;2023-05-23T02:30:23;15.00;99.90
64685;DHT22;51109;47.414;18.954;2023-05-23T02:32:49;15.00;99.90
64685;DHT22;51109;47.414;18.954;2023-05-23T02:35:16;15.00;99.90
64685;DHT22;51109;47.414;18.954;2023-05-23T02:37:42;14.90;99.90
64685;DHT22;51109;47.414;18.954;2023-05-23T02:40:08;14.80;99.90
64685;DHT22;51109;47.414;18.954;2023-05-23T02:42:34;14.90;99.90
64685;DHT22;51109;47.414;18.954;2023-05-23T02:45:00;14.80;99.90
64685;DHT22;51109;47.414;18.954;2023-05-23T02:47:26;14.70;99.90
64685;DHT22;51109;47.414;18.954;2023-05-23T02:49:52;14.80;99.90
64685;DHT22;51109;47.414;18.954;2023-05-23T02:52:18;14.90;99.90
64685;DHT22;51109;47.414;18.954;2023-05-23T02:54:44;14.90;99.90
64685;DHT22;51109;47.414;18.954;2023-05-23T02:57:10;14.80;99.90
64685;DHT22;51109;47.414;18.954;2023-05-23T02:59:36;14.90;99.90
64685;DHT22;51109;47.414;18.954;2023-05-23T03:02:01;15.00;99.90
64685;DHT22;51109;47.414;18.954;2023-05-23T03:04:27;15.00;99.90
64685;DHT22;51109;47.414;18.954;2023-05-23T03:06:54;15.10;99.90
64685;DHT22;51109;47.414;18.954;2023-05-23T03:09:20;15.20;99.90
64685;DHT22;51109;47.414;18.954;2023-05-23T03:11:46;15.30;99.90
64685;DHT22;51109;47.414;18.954;2023-05-23T03:14:12;15.40;99.90
64685;DHT22;51109;47.414;18.954;2023-05-23T03:16:38;15.40;99.90
64685;DHT22;51109;47.414;18.954;2023-05-23T03:19:04;15.40;99.90
64685;DHT22;51109;47.414;18.954;2023-05-23T03:21:31;15.20;99.90
64685;DHT22;51109;47.414;18.954;2023-05-23T03:23:57;15.10;99.90
64685;DHT22;51109;47.414;18.954;2023-05-23T03:26:23;15.00;99.90
64685;DHT22;51109;47.414;18.954;2023-05-23T03:28:49;15.00;99.90
64685;DHT22;51109;47.414;18.954;2023-05-23T03:31:16;15.00;99.90
64685;DHT22;51109;47.414;18.954;2023-05-23T03:33:42;15.00;99.90
64685;DHT22;51109;47.414;18.954;2023-05-23T03:36:08;14.90;99.90
64685;DHT22;51109;47.414;18.954;2023-05-23T03:38:34;14.90;99.90
64685;DHT22;51109;47.414;18.954;2023-05-23T03:41:00;14.90;99.90
64685;DHT22;51109;47.414;18.954;2023-05-23T03:43:26;14.90;99.90
64685;DHT22;51109;47.414;18.954;2023-05-23T03:45:51;14.90;99.90
64685;DHT22;51109;47.414;18.954;2023-05-23T03:48:17;14.90;99.90
64685;DHT22;51109;47.414;18.954;2023-05-23T03:50:43;14.90;99.90
64685;DHT22;51109;47.414;18.954;2023-05-23T03:53:09;15.00;99.90
64685;DHT22;51109;47.414;18.954;2023-05-23T03:55:35;15.10;99.90
64685;DHT22;51109;47.414;18.954;2023-05-23T03:58:01;15.20;99.90
64685;DHT22;51109;47.414;18.954;2023-05-23T04:00:27;15.30;99.90
64685;DHT22;51109;47.414;18.954;2023-05-23T04:02:52;15.40;99.90
64685;DHT22;51109;47.414;18.954;2023-05-23T04:05:18;15.50;99.90
64685;DHT22;51109;47.414;18.954;2023-05-23T04:07:44;15.60;99.90
64685;DHT22;51109;47.414;18.954;2023-05-23T04:10:10;15.70;99.90
64685;DHT22;51109;47.414;18.954;2023-05-23T04:12:36;15.80;99.90
64685;DHT22;51109;47.414;18.954;2023-05-23T04:15:06;15.80;99.90
64685;DHT22;51109;47.414;18.954;2023-05-23T04:17:32;15.80;99.90
64685;DHT22;51109;47.414;18.954;2023-05-23T04:19:58;15.90;99.90
64685;DHT22;51109;47.414;18.954;2023-05-23T04:22:24;15.90;99.90
64685;DHT22;51109;47.414;18.954;2023-05-23T04:24:50;15.90;99.90
64685;DHT22;51109;47.414;18.954;2023-05-23T04:27:16;15.90;99.90
64685;DHT22;51109;47.414;18.954;2023-05-23T04:29:42;16.00;99.90
64685;DHT22;51109;47.414;18.954;2023-05-23T04:32:08;16.00;99.90
64685;DHT22;51109;47.414;18.954;2023-05-23T04:34:34;16.10;99.90
64685;DHT22;51109;47.414;18.954;2023-05-23T04:37:00;16.20;99.90
64685;DHT22;51109;47.414;18.954;2023-05-23T04:39:29;16.30;99.90
64685;DHT22;51109;47.414;18.954;2023-05-23T04:41:55;16.40;99.90
64685;DHT22;51109;47.414;18.954;2023-05-23T04:44:22;16.50;99.90
64685;DHT22;51109;47.414;18.954;2023-05-23T04:46:48;16.70;99.90
64685;DHT22;51109;47.414;18.954;2023-05-23T04:49:15;16.90;99.90
64685;DHT22;51109;47.414;18.954;2023-05-23T04:51:42;17.10;99.90
64685;DHT22;51109;47.414;18.954;2023-05-23T04:54:08;17.30;99.90
64685;DHT22;51109;47.414;18.954;2023-05-23T04:56:33;17.30;99.90
64685;DHT22;51109;47.414;18.954;2023-05-23T04:58:59;17.50;99.90
64685;DHT22;51109;47.414;18.954;2023-05-23T05:01:25;17.80;99.90
64685;DHT22;51109;47.414;18.954;2023-05-23T05:03:52;17.90;99.90
64685;DHT22;51109;47.414;18.954;2023-05-23T05:06:18;17.90;99.90
64685;DHT22;51109;47.414;18.954;2023-05-23T05:08:45;18.10;99.90
64685;DHT22;51109;47.414;18.954;2023-05-23T05:11:11;18.30;99.90
64685;DHT22;51109;47.414;18.954;2023-05-23T05:13:37;18.60;99.90
64685;DHT22;51109;47.414;18.954;2023-05-23T05:16:03;18.60;99.90
64685;DHT22;51109;47.414;18.954;2023-05-23T05:18:29;18.40;99.90
64685;DHT22;51109;47.414;18.954;2023-05-23T05:20:55;18.40;99.90
64685;DHT22;51109;47.414;18.954;2023-05-23T05:23:24;18.50;99.90
64685;DHT22;51109;47.414;18.954;2023-05-23T05:25:50;18.70;99.90
64685;DHT22;51109;47.414;18.954;2023-05-23T05:28:16;18.80;99.90
64685;DHT22;51109;47.414;18.954;2023-05-23T05:30:42;18.90;99.90
64685;DHT22;51109;47.414;18.954;2023-05-23T05:33:10;19.10;99.90
64685;DHT22;51109;47.414;18.954;2023-05-23T05:35:36;19.20;99.90
64685;DHT22;51109;47.414;18.954;2023-05-23T05:38:05;19.30;99.90
64685;DHT22;51109;47.414;18.954;2023-05-23T05:40:33;19.40;99.90
64685;DHT22;51109;47.414;18.954;2023-05-23T05:42:59;19.60;99.90
64685;DHT22;51109;47.414;18.954;2023-05-23T05:45:25;19.80;99.90
64685;DHT22;51109;47.414;18.954;2023-05-23T05:47:51;19.90;99.90
64685;DHT22;51109;47.414;18.954;2023-05-23T05:50:17;20.10;99.90
64685;DHT22;51109;47.414;18.954;2023-05-23T05:52:45;20.00;99.90
64685;DHT22;51109;47.414;18.954;2023-05-23T05:55:11;19.60;99.90
64685;DHT22;51109;47.414;18.954;2023-05-23T05:57:40;19.70;99.90
64685;DHT22;51109;47.414;18.954;2023-05-23T06:00:09;19.80;99.90
64685;DHT22;51109;47.414;18.954;2023-05-23T06:02:40;20.00;99.90
64685;DHT22;51109;47.414;18.954;2023-05-23T06:05:10;20.30;99.90
64685;DHT22;51109;47.414;18.954;2023-05-23T06:07:41;20.60;99.90
64685;DHT22;51109;47.414;18.954;2023-05-23T06:10:07;20.60;99.90
64685;DHT22;51109;47.414;18.954;2023-05-23T06:12:34;20.70;99.90
64685;DHT22;51109;47.414;18.954;2023-05-23T06:15:00;20.40;99.90
64685;DHT22;51109;47.414;18.954;2023-05-23T06:17:27;20.20;99.90
64685;DHT22;51109;47.414;18.954;2023-05-23T06:19:53;20.40;99.90
64685;DHT22;51109;47.414;18.954;2023-05-23T06:22:19;20.70;99.90
64685;DHT22;51109;47.414;18.954;2023-05-23T06:24:44;21.00;99.90
64685;DHT22;51109;47.414;18.954;2023-05-23T06:27:11;21.50;99.90
64685;DHT22;51109;47.414;18.954;2023-05-23T06:29:37;21.70;99.90
64685;DHT22;51109;47.414;18.954;2023-05-23T06:32:04;21.80;99.90
64685;DHT22;51109;47.414;18.954;2023-05-23T06:34:30;22.00;99.90
64685;DHT22;51109;47.414;18.954;2023-05-23T06:36:56;22.30;99.90
64685;DHT22;51109;47.414;18.954;2023-05-23T06:39:22;22.50;99.90
64685;DHT22;51109;47.414;18.954;2023-05-23T06:41:48;22.30;99.90
64685;DHT22;51109;47.414;18.954;2023-05-23T06:44:14;22.50;99.90
64685;DHT22;51109;47.414;18.954;2023-05-23T06:46:44;22.70;99.90
64685;DHT22;51109;47.414;18.954;2023-05-23T06:49:09;23.00;99.90
64685;DHT22;51109;47.414;18.954;2023-05-23T06:51:35;23.10;99.90
64685;DHT22;51109;47.414;18.954;2023-05-23T06:54:01;23.00;99.90
64685;DHT22;51109;47.414;18.954;2023-05-23T06:56:27;23.10;99.90
64685;DHT22;51109;47.414;18.954;2023-05-23T06:58:52;23.10;99.90
64685;DHT22;51109;47.414;18.954;2023-05-23T07:01:18;23.10;99.90
64685;DHT22;51109;47.414;18.954;2023-05-23T07:03:44;23.40;99.90
64685;DHT22;51109;47.414;18.954;2023-05-23T07:06:11;23.50;99.90
64685;DHT22;51109;47.414;18.954;2023-05-23T07:08:37;23.60;99.90
64685;DHT22;51109;47.414;18.954;2023-05-23T07:11:04;23.80;99.90
64685;DHT22;51109;47.414;18.954;2023-05-23T07:13:29;23.90;99.90
64685;DHT22;51109;47.414;18.954;2023-05-23T07:15:55;24.00;99.90
64685;DHT22;51109;47.414;18.954;2023-05-23T07:18:22;23.90;99.90
64685;DHT22;51109;47.414;18.954;2023-05-23T07:20:48;23.90;99.90
64685;DHT22;51109;47.414;18.954;2023-05-23T07:23:14;24.20;99.90
64685;DHT22;51109;47.414;18.954;2023-05-23T07:25:40;24.20;99.90
64685;DHT22;51109;47.414;18.954;2023-05-23T07:28:07;24.20;99.90
64685;DHT22;51109;47.414;18.954;2023-05-23T07:30:33;24.30;99.90
64685;DHT22;51109;47.414;18.954;2023-05-23T07:32:59;24.20;99.90
64685;DHT22;51109;47.414;18.954;2023-05-23T07:35:25;24.10;99.90
64685;DHT22;51109;47.414;18.954;2023-05-23T07:37:54;24.10;99.90
64685;DHT22;51109;47.414;18.954;2023-05-23T07:40:21;24.10;99.90
64685;DHT22;51109;47.414;18.954;2023-05-23T07:42:47;24.30;99.90
64685;DHT22;51109;47.414;18.954;2023-05-23T07:45:13;24.40;99.90
64685;DHT22;51109;47.414;18.954;2023-05-23T07:47:40;24.50;99.90
64685;DHT22;51109;47.414;18.954;2023-05-23T07:50:06;24.20;99.90
64685;DHT22;51109;47.414;18.954;2023-05-23T07:52:33;24.20;99.90
64685;DHT22;51109;47.414;18.954;2023-05-23T07:54:59;24.20;99.90
64685;DHT22;51109;47.414;18.954;2023-05-23T07:57:25;24.30;99.90
64685;DHT22;51109;47.414;18.954;2023-05-23T07:59:52;24.30;99.90
64685;DHT22;51109;47.414;18.954;2023-05-23T08:02:18;24.30;99.90
64685;DHT22;51109;47.414;18.954;2023-05-23T08:04:45;24.20;99.90
64685;DHT22;51109;47.414;18.954;2023-05-23T08:07:11;24.20;99.90
64685;DHT22;51109;47.414;18.954;2023-05-23T08:09:38;24.40;99.90
64685;DHT22;51109;47.414;18.954;2023-05-23T08:12:05;24.50;99.90
64685;DHT22;51109;47.414;18.954;2023-05-23T08:14:32;24.60;99.90
64685;DHT22;51109;47.414;18.954;2023-05-23T08:16:58;24.80;99.90
64685;DHT22;51109;47.414;18.954;2023-05-23T08:19:24;24.90;99.90
64685;DHT22;51109;47.414;18.954;2023-05-23T08:21:50;24.80;99.90
64685;DHT22;51109;47.414;18.954;2023-05-23T08:24:18;24.90;99.90
64685;DHT22;51109;47.414;18.954;2023-05-23T08:26:44;25.00;99.90
64685;DHT22;51109;47.414;18.954;2023-05-23T08:29:11;25.10;99.90
64685;DHT22;51109;47.414;18.954;2023-05-23T08:31:37;25.20;99.90
64685;DHT22;51109;47.414;18.954;2023-05-23T08:34:03;25.50;99.90
64685;DHT22;51109;47.414;18.954;2023-05-23T08:36:29;25.30;99.90
64685;DHT22;51109;47.414;18.954;2023-05-23T08:38:58;25.20;99.90
64685;DHT22;51109;47.414;18.954;2023-05-23T08:41:24;25.00;99.90
64685;DHT22;51109;47.414;18.954;2023-05-23T08:43:52;25.20;99.90
64685;DHT22;51109;47.414;18.954;2023-05-23T08:46:18;25.00;99.90
64685;DHT22;51109;47.414;18.954;2023-05-23T08:48:53;25.00;99.90
64685;DHT22;51109;47.414;18.954;2023-05-23T08:51:25;25.10;99.90
64685;DHT22;51109;47.414;18.954;2023-05-23T08:53:53;25.30;99.90
64685;DHT22;51109;47.414;18.954;2023-05-23T08:56:22;25.60;99.90
64685;DHT22;51109;47.414;18.954;2023-05-23T08:58:49;25.70;99.90
64685;DHT22;51109;47.414;18.954;2023-05-23T09:01:15;25.50;99.90
64685;DHT22;51109;47.414;18.954;2023-05-23T09:03:45;25.40;99.90
64685;DHT22;51109;47.414;18.954;2023-05-23T09:06:12;25.30;99.90
64685;DHT22;51109;47.414;18.954;2023-05-23T09:08:37;25.50;99.90
64685;DHT22;51109;47.414;18.954;2023-05-23T09:11:05;25.70;99.90
64685;DHT22;51109;47.414;18.954;2023-05-23T09:13:34;25.80;99.90
64685;DHT22;51109;47.414;18.954;2023-05-23T09:16:09;25.90;99.90
64685;DHT22;51109;47.414;18.954;2023-05-23T09:18:39;25.90;99.90
64685;DHT22;51109;47.414;18.954;2023-05-23T09:21:07;26.00;99.90
64685;DHT22;51109;47.414;18.954;2023-05-23T09:23:34;26.00;99.90
64685;DHT22;51109;47.414;18.954;2023-05-23T09:26:05;26.10;99.90
64685;DHT22;51109;47.414;18.954;2023-05-23T09:28:36;26.30;99.90
64685;DHT22;51109;47.414;18.954;2023-05-23T09:31:06;26.10;99.90
64685;DHT22;51109;47.414;18.954;2023-05-23T09:33:42;26.10;99.90
64685;DHT22;51109;47.414;18.954;2023-05-23T09:36:10;26.20;99.90
64685;DHT22;51109;47.414;18.954;2023-05-23T09:38:43;26.00;99.90
64685;DHT22;51109;47.414;18.954;2023-05-23T09:41:09;26.10;99.90
64685;DHT22;51109;47.414;18.954;2023-05-23T09:43:39;26.10;99.90
64685;DHT22;51109;47.414;18.954;2023-05-23T09:46:10;26.30;99.90
64685;DHT22;51109;47.414;18.954;2023-05-23T09:48:37;26.30;99.90
64685;DHT22;51109;47.414;18.954;2023-05-23T09:51:04;26.30;99.90
64685;DHT22;51109;47.414;18.954;2023-05-23T09:53:31;26.20;99.90
64685;DHT22;51109;47.414;18.954;2023-05-23T09:55:58;26.30;99.90
64685;DHT22;51109;47.414;18.954;2023-05-23T09:58:26;26.30;99.90
64685;DHT22;51109;47.414;18.954;2023-05-23T10:00:55;26.20;99.90
64685;DHT22;51109;47.414;18.954;2023-05-23T10:03:39;26.20;99.90
64685;DHT22;51109;47.414;18.954;2023-05-23T10:06:09;26.50;99.90
64685;DHT22;51109;47.414;18.954;2023-05-23T10:08:43;26.60;99.90
64685;DHT22;51109;47.414;18.954;2023-05-23T10:14:06;26.70;99.90
64685;DHT22;51109;47.414;18.954;2023-05-23T10:16:54;26.50;99.90
64685;DHT22;51109;47.414;18.954;2023-05-23T10:19:33;26.40;99.90
64685;DHT22;51109;47.414;18.954;2023-05-23T10:22:03;26.50;99.90
64685;DHT22;51109;47.414;18.954;2023-05-23T10:24:31;26.50;99.90
64685;DHT22;51109;47.414;18.954;2023-05-23T10:26:58;26.70;99.90
64685;DHT22;51109;47.414;18.954;2023-05-23T10:29:24;26.80;99.90
64685;DHT22;51109;47.414;18.954;2023-05-23T10:31:52;26.90;99.90
64685;DHT22;51109;47.414;18.954;2023-05-23T10:39:26;26.80;99.90
64685;DHT22;51109;47.414;18.954;2023-05-23T10:41:59;26.90;99.90
64685;DHT22;51109;47.414;18.954;2023-05-23T10:44:28;27.20;99.90
64685;DHT22;51109;47.414;18.954;2023-05-23T10:46:57;27.30;99.90
64685;DHT22;51109;47.414;18.954;2023-05-23T10:49:45;27.40;99.90
64685;DHT22;51109;47.414;18.954;2023-05-23T10:52:13;27.20;99.90
64685;DHT22;51109;47.414;18.954;2023-05-23T10:57:09;26.90;99.90
64685;DHT22;51109;47.414;18.954;2023-05-23T10:59:37;26.90;99.90
64685;DHT22;51109;47.414;18.954;2023-05-23T11:02:11;27.00;99.90
64685;DHT22;51109;47.414;18.954;2023-05-23T11:04:38;27.00;99.90
64685;DHT22;51109;47.414;18.954;2023-05-23T11:07:04;26.80;99.90
64685;DHT22;51109;47.414;18.954;2023-05-23T11:09:30;26.60;99.90
64685;DHT22;51109;47.414;18.954;2023-05-23T11:12:03;26.70;99.90
64685;DHT22;51109;47.414;18.954;2023-05-23T11:16:59;26.30;99.90
64685;DHT22;51109;47.414;18.954;2023-05-23T11:19:26;26.50;99.90
64685;DHT22;51109;47.414;18.954;2023-05-23T11:24:20;26.90;99.90
64685;DHT22;51109;47.414;18.954;2023-05-23T11:26:58;26.60;99.90
64685;DHT22;51109;47.414;18.954;2023-05-23T11:29:29;26.40;99.90
64685;DHT22;51109;47.414;18.954;2023-05-23T11:31:55;26.20;99.90
64685;DHT22;51109;47.414;18.954;2023-05-23T11:34:24;26.20;99.90
64685;DHT22;51109;47.414;18.954;2023-05-23T11:36:55;26.10;99.90
64685;DHT22;51109;47.414;18.954;2023-05-23T11:39:22;26.10;99.90
64685;DHT22;51109;47.414;18.954;2023-05-23T11:42:01;26.20;99.90
64685;DHT22;51109;47.414;18.954;2023-05-23T11:44:27;26.50;99.90
64685;DHT22;51109;47.414;18.954;2023-05-23T11:47:00;26.80;99.90
64685;DHT22;51109;47.414;18.954;2023-05-23T11:49:30;26.90;99.90
64685;DHT22;51109;47.414;18.954;2023-05-23T11:52:00;26.80;99.90
64685;DHT22;51109;47.414;18.954;2023-05-23T11:54:27;26.70;99.90
64685;DHT22;51109;47.414;18.954;2023-05-23T11:56:53;26.80;99.90
64685;DHT22;51109;47.414;18.954;2023-05-23T11:59:21;26.80;99.90
64685;DHT22;51109;47.414;18.954;2023-05-23T12:01:47;26.90;99.90
64685;DHT22;51109;47.414;18.954;2023-05-23T12:04:13;27.10;99.90
64685;DHT22;51109;47.414;18.954;2023-05-23T12:06:40;27.20;99.90
64685;DHT22;51109;47.414;18.954;2023-05-23T12:09:07;27.10;99.90
64685;DHT22;51109;47.414;18.954;2023-05-23T12:11:35;27.20;99.90
64685;DHT22;51109;47.414;18.954;2023-05-23T12:14:02;27.20;99.90
64685;DHT22;51109;47.414;18.954;2023-05-23T12:16:35;26.70;99.90
64685;DHT22;51109;47.414;18.954;2023-05-23T12:19:02;26.40;99.90
64685;DHT22;51109;47.414;18.954;2023-05-23T12:21:43;26.50;99.90
64685;DHT22;51109;47.414;18.954;2023-05-23T12:24:19;26.60;99.90
64685;DHT22;51109;47.414;18.954;2023-05-23T12:26:53;26.50;99.90
64685;DHT22;51109;47.414;18.954;2023-05-23T12:29:30;26.40;99.90
64685;DHT22;51109;47.414;18.954;2023-05-23T12:32:00;26.90;99.90
64685;DHT22;51109;47.414;18.954;2023-05-23T12:34:27;27.10;99.90
64685;DHT22;51109;47.414;18.954;2023-05-23T12:36:57;27.20;99.90
64685;DHT22;51109;47.414;18.954;2023-05-23T12:39:27;27.10;99.90
64685;DHT22;51109;47.414;18.954;2023-05-23T12:41:54;26.90;99.90
64685;DHT22;51109;47.414;18.954;2023-05-23T12:44:29;26.90;99.90
64685;DHT22;51109;47.414;18.954;2023-05-23T12:46:55;27.30;99.90
64685;DHT22;51109;47.414;18.954;2023-05-23T12:49:21;27.80;99.90
64685;DHT22;51109;47.414;18.954;2023-05-23T12:51:47;28.00;99.90
64685;DHT22;51109;47.414;18.954;2023-05-23T12:54:13;28.20;99.90
64685;DHT22;51109;47.414;18.954;2023-05-23T12:56:39;28.20;99.90
64685;DHT22;51109;47.414;18.954;2023-05-23T12:59:04;28.20;99.90
64685;DHT22;51109;47.414;18.954;2023-05-23T13:01:30;28.30;99.90
64685;DHT22;51109;47.414;18.954;2023-05-23T13:04:02;28.70;99.90
64685;DHT22;51109;47.414;18.954;2023-05-23T13:06:28;28.60;99.90
64685;DHT22;51109;47.414;18.954;2023-05-23T13:08:54;28.40;99.90
64685;DHT22;51109;47.414;18.954;2023-05-23T13:11:23;28.40;99.90
64685;DHT22;51109;47.414;18.954;2023-05-23T13:13:49;28.70;99.90
64685;DHT22;51109;47.414;18.954;2023-05-23T13:16:16;28.70;99.90
64685;DHT22;51109;47.414;18.954;2023-05-23T13:18:42;28.60;99.90
64685;DHT22;51109;47.414;18.954;2023-05-23T13:21:08;28.50;99.90
64685;DHT22;51109;47.414;18.954;2023-05-23T13:23:34;28.70;99.90
64685;DHT22;51109;47.414;18.954;2023-05-23T13:26:02;28.60;99.90
64685;DHT22;51109;47.414;18.954;2023-05-23T13:28:28;28.60;99.90
64685;DHT22;51109;47.414;18.954;2023-05-23T13:30:54;28.60;99.90
64685;DHT22;51109;47.414;18.954;2023-05-23T13:33:20;28.40;99.90
64685;DHT22;51109;47.414;18.954;2023-05-23T13:35:48;28.60;99.90
64685;DHT22;51109;47.414;18.954;2023-05-23T13:38:20;28.80;99.90
64685;DHT22;51109;47.414;18.954;2023-05-23T13:40:46;28.90;99.90
64685;DHT22;51109;47.414;18.954;2023-05-23T13:43:12;29.00;99.90
64685;DHT22;51109;47.414;18.954;2023-05-23T13:45:37;29.10;99.90
64685;DHT22;51109;47.414;18.954;2023-05-23T13:48:04;29.00;99.90
64685;DHT22;51109;47.414;18.954;2023-05-23T13:50:30;29.20;99.90
64685;DHT22;51109;47.414;18.954;2023-05-23T13:52:55;28.90;99.90
64685;DHT22;51109;47.414;18.954;2023-05-23T13:55:22;28.90;99.90
64685;DHT22;51109;47.414;18.954;2023-05-23T13:57:48;29.20;99.90
64685;DHT22;51109;47.414;18.954;2023-05-23T14:00:14;29.40;99.90
64685;DHT22;51109;47.414;18.954;2023-05-23T14:02:41;29.40;99.90
64685;DHT22;51109;47.414;18.954;2023-05-23T14:05:07;29.50;99.90
64685;DHT22;51109;47.414;18.954;2023-05-23T14:07:33;29.70;99.90
64685;DHT22;51109;47.414;18.954;2023-05-23T14:09:59;29.30;99.90
64685;DHT22;51109;47.414;18.954;2023-05-23T14:12:24;29.20;99.90
64685;DHT22;51109;47.414;18.954;2023-05-23T14:14:51;29.50;99.90
64685;DHT22;51109;47.414;18.954;2023-05-23T14:17:17;29.50;99.90
64685;DHT22;51109;47.414;18.954;2023-05-23T14:19:44;29.50;99.90
64685;DHT22;51109;47.414;18.954;2023-05-23T14:22:10;29.50;99.90
64685;DHT22;51109;47.414;18.954;2023-05-23T14:24:36;29.70;99.90
64685;DHT22;51109;47.414;18.954;2023-05-23T14:27:02;29.70;99.90
64685;DHT22;51109;47.414;18.954;2023-05-23T14:29:28;29.70;99.90
64685;DHT22;51109;47.414;18.954;2023-05-23T14:31:54;29.50;99.90
64685;DHT22;51109;47.414;18.954;2023-05-23T14:34:21;29.20;99.90
64685;DHT22;51109;47.414;18.954;2023-05-23T14:36:47;29.30;99.90
64685;DHT22;51109;47.414;18.954;2023-05-23T14:39:13;29.20;99.90
64685;DHT22;51109;47.414;18.954;2023-05-23T14:41:39;29.10;99.90
64685;DHT22;51109;47.414;18.954;2023-05-23T14:44:05;29.00;99.90
64685;DHT22;51109;47.414;18.954;2023-05-23T14:46:31;28.90;99.90
64685;DHT22;51109;47.414;18.954;2023-05-23T14:48:57;29.10;99.90
64685;DHT22;51109;47.414;18.954;2023-05-23T14:51:23;29.30;99.90
64685;DHT22;51109;47.414;18.954;2023-05-23T14:53:48;29.40;99.90
64685;DHT22;51109;47.414;18.954;2023-05-23T14:56:14;29.80;99.90
64685;DHT22;51109;47.414;18.954;2023-05-23T14:58:40;30.00;99.90
64685;DHT22;51109;47.414;18.954;2023-05-23T15:01:11;30.00;99.90
64685;DHT22;51109;47.414;18.954;2023-05-23T15:03:37;30.30;99.90
64685;DHT22;51109;47.414;18.954;2023-05-23T15:06:03;30.50;99.90
64685;DHT22;51109;47.414;18.954;2023-05-23T15:08:31;30.40;99.90
64685;DHT22;51109;47.414;18.954;2023-05-23T15:10:58;30.30;99.90
64685;DHT22;51109;47.414;18.954;2023-05-23T15:13:24;30.50;99.90
64685;DHT22;51109;47.414;18.954;2023-05-23T15:15:50;30.60;99.90
64685;DHT22;51109;47.414;18.954;2023-05-23T15:18:16;30.70;99.90
64685;DHT22;51109;47.414;18.954;2023-05-23T15:20:42;30.90;99.90
64685;DHT22;51109;47.414;18.954;2023-05-23T15:23:08;30.90;99.90
64685;DHT22;51109;47.414;18.954;2023-05-23T15:25:34;31.20;99.90
64685;DHT22;51109;47.414;18.954;2023-05-23T15:28:00;31.10;99.90
64685;DHT22;51109;47.414;18.954;2023-05-23T15:30:26;30.80;99.90
64685;DHT22;51109;47.414;18.954;2023-05-23T15:32:52;30.40;99.90
64685;DHT22;51109;47.414;18.954;2023-05-23T15:35:18;29.70;99.90
64685;DHT22;51109;47.414;18.954;2023-05-23T15:37:44;29.30;99.90
64685;DHT22;51109;47.414;18.954;2023-05-23T15:40:11;29.10;99.90